Time;durP1;ratioP1;P1;durP2;ratioP2;P2;SDS_P1;SDS_P2;PMS_P1;PMS_P2;Temp;Humidity;BMP_temperature;BMP_pressure;BME280_temperature;BME280_humidity;BME280_pressure;Samples;Min_cycle;Max_cycle;Signal;HPM_P1;HPM_P2
2022/12/28 00:01:18;;;;;;;12.57;8.10;;;;;;;;;;5118302;28;20238;-66
2022/12/28 00:03:48;;;;;;;10.20;7.87;;;;;;;;;;5118403;28;20221;-66
2022/12/28 00:06:16;;;;;;;13.27;8.07;;;;;;;;;;5121877;28;20236;-66
2022/12/28 00:08:44;;;;;;;10.77;7.57;;;;;;;;;;5122180;28;20208;-66
2022/12/28 00:11:15;;;;;;;13.50;7.67;;;;;;;;;;5121917;28;20208;-66
2022/12/28 00:13:58;;;;;;;9.03;6.13;;;;;;;;;;5122152;28;20228;-66
2022/12/28 00:16:27;;;;;;;7.93;6.13;;;;;;;;;;5121826;28;20578;-65
2022/12/28 00:18:57;;;;;;;8.33;6.10;;;;;;;;;;5121344;28;20236;-65
2022/12/28 00:21:26;;;;;;;11.80;7.23;;;;;;;;;;5121859;28;20284;-64
2022/12/28 00:23:55;;;;;;;12.47;8.00;;;;;;;;;;5121673;28;20670;-66
2022/12/28 00:26:25;;;;;;;13.90;8.10;;;;;;;;;;5121916;28;20280;-65
2022/12/28 00:28:53;;;;;;;12.77;7.70;;;;;;;;;;5121578;28;20645;-65
2022/12/28 00:31:30;;;;;;;12.83;7.83;;;;;;;;;;5121873;28;20261;-65
2022/12/28 00:34:00;;;;;;;14.13;8.17;;;;;;;;;;5121147;28;20311;-64
2022/12/28 00:36:28;;;;;;;11.00;7.33;;;;;;;;;;5121729;28;20236;-64
2022/12/28 00:39:16;;;;;;;10.00;6.77;;;;;;;;;;5121205;27;20200;-65
2022/12/28 00:41:44;;;;;;;10.87;7.53;;;;;;;;;;5121396;28;20683;-65
2022/12/28 00:44:12;;;;;;;12.97;7.73;;;;;;;;;;5121463;28;20220;-65
2022/12/28 00:46:40;;;;;;;12.77;6.57;;;;;;;;;;5121317;28;20268;-65
2022/12/28 00:49:09;;;;;;;9.83;6.83;;;;;;;;;;5120804;28;20254;-65
2022/12/28 00:51:37;;;;;;;11.20;7.00;;;;;;;;;;5121213;28;20212;-65
2022/12/28 00:54:05;;;;;;;10.13;6.97;;;;;;;;;;5121248;28;20221;-65
2022/12/28 00:56:33;;;;;;;9.07;6.70;;;;;;;;;;5121386;28;20201;-65
2022/12/28 00:59:01;;;;;;;11.40;7.33;;;;;;;;;;5121335;27;20209;-66
2022/12/28 01:01:29;;;;;;;11.27;7.00;;;;;;;;;;5121130;28;20197;-65
2022/12/28 01:03:58;;;;;;;15.60;7.67;;;;;;;;;;5120685;28;20229;-65
2022/12/28 01:06:28;;;;;;;14.07;8.60;;;;;;;;;;5120768;27;20205;-65
2022/12/28 01:08:56;;;;;;;14.13;8.60;;;;;;;;;;5120936;28;20212;-65
2022/12/28 01:11:25;;;;;;;13.07;8.30;;;;;;;;;;5120981;28;20226;-65
2022/12/28 01:13:54;;;;;;;16.07;8.70;;;;;;;;;;5120972;28;20231;-66
2022/12/28 01:16:24;;;;;;;11.20;8.13;;;;;;;;;;5120115;28;20247;-65
2022/12/28 01:18:57;;;;;;;15.00;8.90;;;;;;;;;;5120386;28;20240;-65
2022/12/28 01:21:26;;;;;;;10.40;7.60;;;;;;;;;;5120604;28;20280;-65
2022/12/28 01:23:56;;;;;;;12.87;8.60;;;;;;;;;;5120781;28;20278;-65
2022/12/28 01:26:24;;;;;;;13.57;7.97;;;;;;;;;;5120481;28;20209;-66
2022/12/28 01:28:52;;;;;;;14.47;8.80;;;;;;;;;;5120771;28;20219;-65
2022/12/28 01:31:21;;;;;;;13.43;8.67;;;;;;;;;;5120531;28;20235;-66
2022/12/28 01:33:49;;;;;;;16.23;9.30;;;;;;;;;;5120302;28;20229;-65
2022/12/28 01:36:18;;;;;;;14.93;9.23;;;;;;;;;;5120233;28;20205;-65
2022/12/28 01:38:46;;;;;;;16.77;9.53;;;;;;;;;;5120374;28;20570;-66
2022/12/28 01:41:16;;;;;;;14.47;9.40;;;;;;;;;;5107184;28;20640;-66
2022/12/28 01:43:45;;;;;;;16.73;9.40;;;;;;;;;;5120018;28;20229;-65
2022/12/28 01:46:15;;;;;;;14.57;8.80;;;;;;;;;;5120163;28;20200;-65
2022/12/28 01:48:45;;;;;;;16.43;8.67;;;;;;;;;;5119801;28;20209;-65
2022/12/28 01:51:13;;;;;;;15.90;9.07;;;;;;;;;;5120156;27;20263;-65
2022/12/28 01:53:41;;;;;;;11.03;8.13;;;;;;;;;;5119901;27;20225;-65
2022/12/28 01:56:10;;;;;;;13.90;8.47;;;;;;;;;;5119932;28;20204;-65
2022/12/28 01:58:39;;;;;;;11.67;7.93;;;;;;;;;;5119869;28;20244;-65
2022/12/28 02:01:07;;;;;;;11.50;7.27;;;;;;;;;;5119973;28;20279;-65
2022/12/28 02:03:36;;;;;;;12.40;7.30;;;;;;;;;;5119686;28;20520;-65
2022/12/28 02:06:06;;;;;;;11.90;8.43;;;;;;;;;;5119622;28;20450;-65
2022/12/28 02:08:40;;;;;;;10.57;7.47;;;;;;;;;;5119661;28;20474;-65
2022/12/28 02:11:10;;;;;;;10.83;7.10;;;;;;;;;;5119771;28;20510;-65
2022/12/28 02:13:40;;;;;;;10.10;7.90;;;;;;;;;;5119482;28;20557;-65
2022/12/28 02:16:10;;;;;;;13.97;8.43;;;;;;;;;;5119709;28;20204;-65
2022/12/28 02:18:38;;;;;;;13.07;7.50;;;;;;;;;;5119245;27;20531;-65
2022/12/28 02:21:15;;;;;;;11.60;7.70;;;;;;;;;;5119458;28;20456;-65
2022/12/28 02:23:57;;;;;;;12.90;7.63;;;;;;;;;;5119632;28;20295;-66
2022/12/28 02:26:54;;;;;;;15.77;7.47;;;;;;;;;;5119238;28;20544;-65
2022/12/28 02:29:37;;;;;;;11.77;7.47;;;;;;;;;;5096466;28;20201;-65
2022/12/28 02:32:11;;;;;;;13.03;7.43;;;;;;;;;;5116137;28;20251;-65
2022/12/28 02:34:41;;;;;;;9.60;6.77;;;;;;;;;;5119000;28;20243;-65
2022/12/28 02:37:12;;;;;;;10.93;7.57;;;;;;;;;;5119138;28;20208;-65
2022/12/28 02:39:42;;;;;;;13.10;7.90;;;;;;;;;;5119360;28;20205;-65
2022/12/28 02:42:10;;;;;;;10.80;7.13;;;;;;;;;;5118973;28;20197;-65
2022/12/28 02:50:13;;;;;;;12.90;7.60;;;;;;;;;;5118940;27;20288;-65
2022/12/28 02:52:57;;;;;;;11.03;6.60;;;;;;;;;;5119104;28;20228;-65
2022/12/28 02:58:22;;;;;;;9.63;7.13;;;;;;;;;;5118768;28;20671;-66
2022/12/28 03:00:58;;;;;;;9.90;7.10;;;;;;;;;;5118916;28;20212;-66
2022/12/28 03:03:32;;;;;;;14.30;7.33;;;;;;;;;;5118586;28;20315;-65
2022/12/28 03:08:59;;;;;;;9.40;7.27;;;;;;;;;;5118841;28;20446;-65
2022/12/28 03:11:34;;;;;;;11.03;7.23;;;;;;;;;;5118469;28;20500;-65
2022/12/28 03:14:05;;;;;;;12.20;7.63;;;;;;;;;;5118698;28;20307;-65
2022/12/28 03:25:41;;;;;;;14.47;7.57;;;;;;;;;;5118802;28;20232;-65
2022/12/28 03:33:22;;;;;;;12.90;7.50;;;;;;;;;;5118217;28;20466;-65
2022/12/28 03:35:58;;;;;;;10.30;7.07;;;;;;;;;;5118341;28;20445;-65
2022/12/28 03:38:29;;;;;;;9.07;7.03;;;;;;;;;;5118058;28;20448;-66
2022/12/28 03:41:01;;;;;;;9.97;6.80;;;;;;;;;;5118164;28;20438;-65
2022/12/28 03:43:42;;;;;;;11.00;7.57;;;;;;;;;;5118326;28;20467;-65
2022/12/28 03:46:13;;;;;;;8.67;7.23;;;;;;;;;;5118440;28;20492;-65
2022/12/28 03:48:42;;;;;;;10.33;7.07;;;;;;;;;;5118118;28;20506;-65
2022/12/28 03:51:12;;;;;;;11.13;7.03;;;;;;;;;;5117937;28;20819;-65
2022/12/28 03:53:41;;;;;;;11.00;8.00;;;;;;;;;;5118257;28;20492;-65
2022/12/28 03:56:10;;;;;;;11.03;7.10;;;;;;;;;;5118064;28;20446;-65
2022/12/28 03:58:38;;;;;;;10.37;7.20;;;;;;;;;;5117955;28;20469;-65
2022/12/28 04:01:07;;;;;;;9.67;7.20;;;;;;;;;;5118223;28;20451;-65
2022/12/28 04:03:35;;;;;;;13.73;7.50;;;;;;;;;;5117581;28;20469;-65
2022/12/28 04:06:03;;;;;;;8.10;7.10;;;;;;;;;;5118086;28;20450;-65
2022/12/28 04:08:33;;;;;;;9.33;6.90;;;;;;;;;;5118406;28;20506;-65
2022/12/28 04:11:01;;;;;;;10.43;6.57;;;;;;;;;;5118060;28;20443;-65
2022/12/28 04:13:30;;;;;;;11.53;6.80;;;;;;;;;;5117738;28;20459;-65
2022/12/28 04:15:59;;;;;;;10.30;6.37;;;;;;;;;;5118341;28;20443;-65
2022/12/28 04:18:27;;;;;;;9.53;6.63;;;;;;;;;;5117565;28;20475;-65
2022/12/28 04:20:56;;;;;;;11.73;7.23;;;;;;;;;;5117922;28;20442;-65
2022/12/28 04:23:24;;;;;;;9.27;6.90;;;;;;;;;;5118104;28;20463;-65
2022/12/28 04:26:01;;;;;;;11.27;6.67;;;;;;;;;;5117967;28;20477;-65
2022/12/28 04:28:29;;;;;;;10.60;6.70;;;;;;;;;;5117789;28;20477;-65
2022/12/28 04:30:57;;;;;;;10.53;6.63;;;;;;;;;;5117863;28;20457;-65
2022/12/28 04:33:26;;;;;;;8.97;7.27;;;;;;;;;;5117346;28;20464;-65
2022/12/28 04:35:54;;;;;;;10.50;7.47;;;;;;;;;;5117634;28;20520;-65
2022/12/28 04:38:22;;;;;;;11.33;7.40;;;;;;;;;;5117675;28;20522;-65
2022/12/28 04:40:50;;;;;;;9.73;7.07;;;;;;;;;;5117770;28;20449;-65
2022/12/28 04:43:19;;;;;;;11.50;6.80;;;;;;;;;;5117790;28;20486;-65
2022/12/28 04:45:55;;;;;;;8.67;7.07;;;;;;;;;;5117625;28;20446;-65
2022/12/28 04:48:23;;;;;;;9.27;7.33;;;;;;;;;;5117663;28;20464;-65
2022/12/28 04:50:51;;;;;;;10.23;7.30;;;;;;;;;;5118568;28;20453;-65
2022/12/28 04:53:22;;;;;;;8.47;6.67;;;;;;;;;;5121259;28;20482;-65
2022/12/28 04:55:50;;;;;;;9.90;6.83;;;;;;;;;;5121211;28;20511;-65
2022/12/28 04:58:20;;;;;;;8.97;6.43;;;;;;;;;;5120969;28;20972;-65
2022/12/28 05:00:48;;;;;;;9.93;6.77;;;;;;;;;;5120883;28;20549;-65
2022/12/28 05:03:16;;;;;;;12.47;7.20;;;;;;;;;;5120580;28;20469;-65
2022/12/28 05:05:44;;;;;;;9.70;7.80;;;;;;;;;;5120825;28;20460;-65
2022/12/28 05:08:12;;;;;;;10.47;5.87;;;;;;;;;;5120883;27;20891;-65
2022/12/28 05:10:40;;;;;;;10.37;7.30;;;;;;;;;;5120813;28;20823;-65
2022/12/28 05:13:08;;;;;;;9.60;7.43;;;;;;;;;;5120658;28;20494;-65
2022/12/28 05:15:37;;;;;;;7.03;6.07;;;;;;;;;;5120749;28;20489;-65
2022/12/28 05:18:05;;;;;;;8.60;6.63;;;;;;;;;;5120255;28;20829;-64
2022/12/28 05:20:34;;;;;;;9.23;6.60;;;;;;;;;;5120512;28;20438;-65
2022/12/28 05:23:01;;;;;;;9.50;6.30;;;;;;;;;;5120775;28;20467;-65
2022/12/28 05:25:29;;;;;;;12.23;7.30;;;;;;;;;;5120759;28;20443;-65
2022/12/28 05:27:58;;;;;;;10.17;6.47;;;;;;;;;;5120746;27;20481;-65
2022/12/28 05:30:26;;;;;;;13.40;7.00;;;;;;;;;;5120479;28;20485;-65
2022/12/28 05:32:55;;;;;;;11.97;6.73;;;;;;;;;;5120009;28;20981;-65
2022/12/28 05:35:24;;;;;;;8.43;6.20;;;;;;;;;;5119571;28;20442;-65
2022/12/28 05:37:54;;;;;;;11.43;6.50;;;;;;;;;;5118678;28;20494;-65
2022/12/28 05:40:22;;;;;;;10.10;6.33;;;;;;;;;;5119985;28;20439;-65
2022/12/28 05:42:50;;;;;;;8.50;6.30;;;;;;;;;;5118770;28;20828;-64
2022/12/28 05:45:18;;;;;;;8.20;6.10;;;;;;;;;;5117776;28;20441;-65
2022/12/28 05:47:47;;;;;;;9.10;6.40;;;;;;;;;;5119979;28;20466;-65
2022/12/28 05:50:16;;;;;;;10.63;6.07;;;;;;;;;;5119941;28;20468;-64
2022/12/28 05:52:44;;;;;;;8.90;6.00;;;;;;;;;;5119549;28;20482;-64
2022/12/28 05:55:12;;;;;;;8.37;6.10;;;;;;;;;;5119923;28;20470;-65
2022/12/28 05:57:40;;;;;;;12.50;6.30;;;;;;;;;;5120052;28;20443;-64
2022/12/28 06:00:09;;;;;;;9.23;5.70;;;;;;;;;;5119726;28;20447;-65
2022/12/28 06:02:37;;;;;;;11.23;6.40;;;;;;;;;;5118946;28;20459;-64
2022/12/28 06:05:05;;;;;;;8.90;6.10;;;;;;;;;;5119462;28;20846;-64
2022/12/28 06:07:35;;;;;;;10.50;6.47;;;;;;;;;;5117756;28;20477;-64
2022/12/28 06:10:03;;;;;;;9.17;5.90;;;;;;;;;;5117604;28;20945;-64
2022/12/28 06:12:31;;;;;;;10.83;6.20;;;;;;;;;;5117489;28;21001;-64
2022/12/28 06:14:59;;;;;;;9.67;6.10;;;;;;;;;;5117643;28;20907;-64
2022/12/28 06:17:27;;;;;;;9.40;6.93;;;;;;;;;;5117154;28;20961;-64
2022/12/28 06:19:55;;;;;;;8.00;5.27;;;;;;;;;;5117241;28;20474;-64
2022/12/28 06:22:23;;;;;;;7.30;5.43;;;;;;;;;;5118717;28;20522;-64
2022/12/28 06:24:52;;;;;;;7.30;5.60;;;;;;;;;;5119601;28;20474;-64
2022/12/28 06:27:20;;;;;;;8.30;5.73;;;;;;;;;;5119321;28;20526;-64
2022/12/28 06:29:48;;;;;;;8.70;5.37;;;;;;;;;;5119490;28;20474;-64
2022/12/28 06:32:16;;;;;;;8.23;5.50;;;;;;;;;;5118991;28;20471;-64
2022/12/28 06:34:44;;;;;;;8.60;6.13;;;;;;;;;;5119403;28;20438;-64
2022/12/28 06:37:12;;;;;;;8.93;5.67;;;;;;;;;;5119053;28;20783;-64
2022/12/28 06:39:40;;;;;;;7.80;5.80;;;;;;;;;;5119009;28;20438;-64
2022/12/28 06:42:10;;;;;;;6.70;6.03;;;;;;;;;;5119138;28;20500;-64
2022/12/28 06:44:38;;;;;;;11.97;5.57;;;;;;;;;;5119239;28;20463;-64
2022/12/28 06:47:11;;;;;;;9.53;5.77;;;;;;;;;;5118833;28;20435;-64
2022/12/28 06:49:39;;;;;;;8.03;6.10;;;;;;;;;;5119092;28;20481;-64
2022/12/28 06:52:07;;;;;;;11.27;5.90;;;;;;;;;;5119100;28;20518;-64
2022/12/28 06:54:35;;;;;;;9.17;5.97;;;;;;;;;;5118810;27;20997;-64
2022/12/28 06:57:03;;;;;;;8.63;6.50;;;;;;;;;;5118712;28;20443;-64
2022/12/28 06:59:33;;;;;;;9.97;6.43;;;;;;;;;;5118567;28;20534;-64
2022/12/28 07:02:01;;;;;;;10.43;5.93;;;;;;;;;;5118359;28;20504;-64
2022/12/28 07:04:29;;;;;;;8.43;6.10;;;;;;;;;;5118801;28;20459;-64
2022/12/28 07:06:57;;;;;;;9.07;6.50;;;;;;;;;;5118857;28;20443;-64
2022/12/28 07:09:25;;;;;;;9.17;6.77;;;;;;;;;;5118889;28;20446;-64
2022/12/28 07:11:53;;;;;;;8.43;6.43;;;;;;;;;;5118489;28;20439;-64
2022/12/28 07:14:23;;;;;;;7.80;6.83;;;;;;;;;;5117772;28;20493;-64
2022/12/28 07:16:53;;;;;;;10.30;6.73;;;;;;;;;;5118443;28;20467;-64
2022/12/28 07:19:21;;;;;;;10.63;6.80;;;;;;;;;;5118186;28;20827;-64
2022/12/28 07:21:49;;;;;;;9.20;5.90;;;;;;;;;;5118272;28;21010;-64
2022/12/28 07:24:17;;;;;;;8.57;6.13;;;;;;;;;;5118292;28;20594;-64
2022/12/28 07:26:45;;;;;;;8.10;5.97;;;;;;;;;;5118567;28;20442;-64
2022/12/28 07:29:13;;;;;;;10.17;7.43;;;;;;;;;;5118270;28;20447;-64
2022/12/28 07:31:41;;;;;;;8.70;6.80;;;;;;;;;;5118297;28;20442;-64
2022/12/28 07:34:14;;;;;;;8.77;6.23;;;;;;;;;;5118376;28;20518;-64
2022/12/28 07:36:43;;;;;;;10.90;6.37;;;;;;;;;;5118492;28;20499;-64
2022/12/28 07:39:11;;;;;;;11.27;6.00;;;;;;;;;;5118181;28;20497;-64
2022/12/28 07:41:39;;;;;;;10.53;6.97;;;;;;;;;;5118087;28;20449;-64
2022/12/28 07:44:07;;;;;;;10.70;6.77;;;;;;;;;;5118155;28;20511;-64
2022/12/28 07:46:36;;;;;;;8.40;6.73;;;;;;;;;;5118199;28;20442;-64
2022/12/28 07:49:04;;;;;;;12.83;8.13;;;;;;;;;;5118257;28;20472;-64
2022/12/28 07:51:34;;;;;;;9.87;7.53;;;;;;;;;;5118392;28;20491;-64
2022/12/28 07:54:03;;;;;;;10.17;7.17;;;;;;;;;;5117923;28;20525;-64
2022/12/28 07:56:31;;;;;;;10.77;7.57;;;;;;;;;;5118095;28;20467;-64
2022/12/28 07:58:58;;;;;;;13.30;7.77;;;;;;;;;;5117983;28;20438;-64
2022/12/28 08:01:28;;;;;;;10.13;7.10;;;;;;;;;;5117978;28;20450;-65
2022/12/28 08:03:57;;;;;;;9.60;6.47;;;;;;;;;;5118072;28;20225;-64
2022/12/28 08:06:27;;;;;;;9.10;6.63;;;;;;;;;;5117791;28;20510;-64
2022/12/28 08:08:58;;;;;;;14.33;7.27;;;;;;;;;;5118006;28;20204;-64
2022/12/28 08:11:27;;;;;;;12.17;7.37;;;;;;;;;;5117904;28;20209;-64
2022/12/28 08:13:55;;;;;;;8.67;6.67;;;;;;;;;;5117782;28;20231;-64
2022/12/28 08:16:25;;;;;;;11.57;6.83;;;;;;;;;;5117939;28;20215;-64
2022/12/28 08:18:54;;;;;;;12.87;6.97;;;;;;;;;;5117787;28;20268;-65
2022/12/28 08:21:22;;;;;;;12.13;6.23;;;;;;;;;;5117579;28;20248;-64
2022/12/28 08:23:51;;;;;;;9.97;6.80;;;;;;;;;;5117740;28;20638;-65
2022/12/28 08:26:21;;;;;;;8.33;6.13;;;;;;;;;;5121017;28;20623;-65
2022/12/28 08:28:50;;;;;;;10.43;6.53;;;;;;;;;;5121926;28;20205;-65
2022/12/28 08:31:22;;;;;;;9.67;6.20;;;;;;;;;;5121909;28;20212;-65
2022/12/28 08:33:50;;;;;;;11.33;6.87;;;;;;;;;;5121716;28;20235;-65
2022/12/28 08:36:19;;;;;;;8.03;6.40;;;;;;;;;;5121239;28;20213;-65
2022/12/28 08:38:47;;;;;;;9.47;6.50;;;;;;;;;;5121738;28;20212;-65
2022/12/28 08:41:16;;;;;;;10.00;6.47;;;;;;;;;;5121322;28;20215;-65
2022/12/28 08:43:45;;;;;;;8.80;7.00;;;;;;;;;;5121234;28;20220;-65
2022/12/28 08:46:15;;;;;;;9.10;6.77;;;;;;;;;;5121290;28;20283;-65
2022/12/28 08:48:43;;;;;;;9.73;6.83;;;;;;;;;;5121267;28;20209;-65
2022/12/28 08:51:13;;;;;;;9.40;6.97;;;;;;;;;;5121151;28;20614;-65
2022/12/28 08:53:42;;;;;;;8.20;6.13;;;;;;;;;;5121460;28;20229;-65
2022/12/28 08:56:11;;;;;;;10.43;5.90;;;;;;;;;;5121160;28;20593;-65
2022/12/28 08:58:40;;;;;;;10.90;6.60;;;;;;;;;;5121077;28;20287;-65
2022/12/28 09:01:11;;;;;;;11.10;6.97;;;;;;;;;;5121259;28;20201;-65
2022/12/28 09:03:40;;;;;;;8.63;6.47;;;;;;;;;;5120950;28;20221;-65
2022/12/28 09:06:09;;;;;;;11.90;6.77;;;;;;;;;;5121123;28;20215;-66
2022/12/28 09:08:37;;;;;;;16.70;10.03;;;;;;;;;;5120837;28;20208;-66
2022/12/28 09:11:07;;;;;;;19.73;7.23;;;;;;;;;;5120921;28;20216;-65
2022/12/28 09:13:35;;;;;;;7.43;6.47;;;;;;;;;;5120499;28;20630;-65
2022/12/28 09:16:05;;;;;;;7.33;6.00;;;;;;;;;;5120676;28;20693;-65
2022/12/28 09:18:34;;;;;;;11.40;6.60;;;;;;;;;;5120549;28;20240;-65
2022/12/28 09:21:06;;;;;;;8.27;5.83;;;;;;;;;;5120793;28;20287;-65
2022/12/28 09:23:34;;;;;;;7.53;6.50;;;;;;;;;;5120914;28;20227;-65
2022/12/28 09:26:06;;;;;;;8.77;6.20;;;;;;;;;;5120497;28;20251;-65
2022/12/28 09:28:34;;;;;;;12.43;7.10;;;;;;;;;;5120546;28;20240;-65
2022/12/28 09:31:03;;;;;;;11.10;6.57;;;;;;;;;;5120648;27;20220;-65
2022/12/28 09:36:39;;;;;;;11.33;7.10;;;;;;;;;;5119674;27;20595;-65
2022/12/28 09:39:07;;;;;;;13.30;7.67;;;;;;;;;;5120394;28;20205;-65
2022/12/28 09:41:38;;;;;;;13.27;7.43;;;;;;;;;;5120171;28;20219;-65
2022/12/28 09:44:39;;;;;;;9.17;6.40;;;;;;;;;;5120292;28;20216;-65
2022/12/28 09:47:12;;;;;;;11.03;6.63;;;;;;;;;;5097257;28;20205;-65
2022/12/28 09:49:41;;;;;;;10.43;6.07;;;;;;;;;;5097526;28;20205;-65
2022/12/28 09:52:25;;;;;;;9.47;6.17;;;;;;;;;;5108752;27;20258;-66
2022/12/28 09:54:53;;;;;;;8.90;6.40;;;;;;;;;;5120270;28;20277;-65
2022/12/28 09:57:22;;;;;;;10.63;6.20;;;;;;;;;;5120218;28;20201;-66
2022/12/28 09:59:51;;;;;;;9.60;5.80;;;;;;;;;;5119712;28;20250;-66
2022/12/28 10:02:21;;;;;;;13.20;7.27;;;;;;;;;;5119614;28;20574;-66
2022/12/28 10:04:50;;;;;;;9.60;5.90;;;;;;;;;;5119651;28;20205;-65
2022/12/28 10:07:19;;;;;;;6.57;5.03;;;;;;;;;;5119756;28;20626;-65
2022/12/28 10:09:47;;;;;;;8.17;5.77;;;;;;;;;;5119763;28;20205;-66
2022/12/28 10:12:16;;;;;;;6.03;4.30;;;;;;;;;;5119868;28;20249;-66
2022/12/28 10:14:45;;;;;;;5.83;4.13;;;;;;;;;;5119526;28;20221;-65
2022/12/28 10:17:14;;;;;;;9.37;5.03;;;;;;;;;;5119695;28;20247;-66
2022/12/28 10:19:44;;;;;;;7.70;4.57;;;;;;;;;;5119303;28;20236;-65
2022/12/28 10:22:15;;;;;;;5.07;4.47;;;;;;;;;;5119530;28;20717;-66
2022/12/28 10:24:45;;;;;;;4.80;3.83;;;;;;;;;;5119487;28;20238;-65
2022/12/28 10:27:17;;;;;;;4.77;4.17;;;;;;;;;;5119576;28;20268;-66
2022/12/28 10:29:45;;;;;;;6.63;4.30;;;;;;;;;;5119424;28;20228;-65
2022/12/28 10:32:13;;;;;;;4.70;4.00;;;;;;;;;;5119086;28;20204;-64
2022/12/28 10:34:53;;;;;;;5.37;3.83;;;;;;;;;;5119823;27;20260;-66
2022/12/28 10:37:21;;;;;;;6.87;4.23;;;;;;;;;;5119380;27;20204;-64
2022/12/28 10:39:52;;;;;;;5.67;4.03;;;;;;;;;;5119108;28;20696;-65
2022/12/28 10:42:23;;;;;;;5.50;4.03;;;;;;;;;;5119151;28;20208;-66
2022/12/28 10:44:51;;;;;;;5.90;4.07;;;;;;;;;;5119378;28;20196;-66
2022/12/28 10:47:27;;;;;;;5.37;3.97;;;;;;;;;;5118825;28;20634;-65
2022/12/28 10:49:55;;;;;;;6.53;4.33;;;;;;;;;;5118334;28;20225;-65
2022/12/28 10:52:43;;;;;;;6.60;3.70;;;;;;;;;;5119039;28;20232;-66
2022/12/28 10:58:16;;;;;;;7.23;4.10;;;;;;;;;;5157680;27;20576;-64
2022/12/28 11:01:05;;;;;;;6.77;4.07;;;;;;;;;;5143200;27;20211;-65
2022/12/28 11:03:35;;;;;;;6.30;4.07;;;;;;;;;;5135814;27;20220;-66
2022/12/28 11:06:10;;;;;;;4.63;3.33;;;;;;;;;;5136202;28;20227;-66
2022/12/28 11:08:39;;;;;;;5.17;3.67;;;;;;;;;;5136025;28;20754;-65
2022/12/28 11:11:08;;;;;;;5.33;3.87;;;;;;;;;;5135989;27;20204;-65
2022/12/28 11:13:38;;;;;;;5.67;4.30;;;;;;;;;;5135910;28;20252;-64
2022/12/28 11:16:11;;;;;;;5.40;3.90;;;;;;;;;;5135942;27;20232;-66
2022/12/28 11:18:39;;;;;;;6.57;3.47;;;;;;;;;;5135849;28;20230;-66
2022/12/28 11:21:09;;;;;;;4.93;3.80;;;;;;;;;;5135480;27;20200;-65
2022/12/28 11:23:38;;;;;;;5.93;4.27;;;;;;;;;;5135890;27;20224;-65
2022/12/28 11:26:10;;;;;;;5.90;4.80;;;;;;;;;;5135641;28;20651;-66
2022/12/28 11:28:43;;;;;;;6.07;3.87;;;;;;;;;;5135817;28;20208;-66
2022/12/28 11:31:16;;;;;;;4.33;3.70;;;;;;;;;;5135728;28;20232;-66
2022/12/28 11:33:46;;;;;;;5.67;4.17;;;;;;;;;;5135765;28;20274;-66
2022/12/28 11:36:14;;;;;;;6.03;3.67;;;;;;;;;;5135148;28;20260;-66
2022/12/28 11:38:43;;;;;;;5.17;3.60;;;;;;;;;;5135406;28;20204;-66
2022/12/28 11:41:12;;;;;;;5.97;4.03;;;;;;;;;;5135198;28;20209;-66
2022/12/28 11:43:49;;;;;;;8.80;4.07;;;;;;;;;;5135406;27;20224;-66
2022/12/28 11:46:41;;;;;;;6.10;3.90;;;;;;;;;;5135060;27;20655;-66
2022/12/28 11:49:28;;;;;;;4.63;3.60;;;;;;;;;;5114968;28;20201;-66
2022/12/28 11:52:15;;;;;;;4.97;3.47;;;;;;;;;;5135446;27;20204;-66
2022/12/28 11:54:51;;;;;;;10.57;3.90;;;;;;;;;;5135099;28;20204;-66
2022/12/28 11:57:33;;;;;;;5.10;3.40;;;;;;;;;;5134717;28;20232;-66
2022/12/28 12:00:15;;;;;;;6.00;3.63;;;;;;;;;;5131444;28;20614;-66
2022/12/28 12:02:52;;;;;;;4.77;3.50;;;;;;;;;;5134760;27;20735;-66
2022/12/28 12:05:38;;;;;;;4.63;3.63;;;;;;;;;;5135223;27;20200;-66
2022/12/28 12:08:21;;;;;;;6.63;3.87;;;;;;;;;;5128520;27;20223;-65
2022/12/28 12:10:49;;;;;;;5.17;4.10;;;;;;;;;;5120936;28;20212;-65
2022/12/28 12:13:39;;;;;;;5.00;3.43;;;;;;;;;;5121242;27;20225;-65
2022/12/28 12:16:15;;;;;;;5.43;3.67;;;;;;;;;;5120910;28;20680;-65
2022/12/28 12:18:46;;;;;;;4.63;3.67;;;;;;;;;;5121266;28;20203;-65
2022/12/28 12:21:21;;;;;;;4.40;3.93;;;;;;;;;;5121067;28;20204;-65
2022/12/28 12:23:52;;;;;;;6.47;3.83;;;;;;;;;;5120759;28;20228;-65
2022/12/28 12:26:26;;;;;;;5.53;3.90;;;;;;;;;;5121007;27;20204;-65
2022/12/28 12:28:56;;;;;;;5.67;4.30;;;;;;;;;;5120979;28;20204;-65
2022/12/28 12:31:26;;;;;;;6.60;4.60;;;;;;;;;;5120707;28;20239;-65
2022/12/28 12:33:58;;;;;;;6.97;4.60;;;;;;;;;;5120814;28;20287;-65
2022/12/28 12:36:33;;;;;;;7.30;5.30;;;;;;;;;;5120394;28;20288;-65
2022/12/28 12:39:10;;;;;;;9.60;4.20;;;;;;;;;;5120756;28;20283;-65
2022/12/28 12:41:43;;;;;;;5.87;4.00;;;;;;;;;;5120355;28;20572;-65
2022/12/28 12:44:17;;;;;;;8.47;5.77;;;;;;;;;;5120706;28;20224;-65
2022/12/28 12:47:02;;;;;;;6.47;4.67;;;;;;;;;;5120368;28;20287;-65
2022/12/28 12:49:47;;;;;;;7.07;4.83;;;;;;;;;;5120592;28;20208;-65
2022/12/28 12:52:19;;;;;;;6.23;5.20;;;;;;;;;;5120735;28;20205;-65
2022/12/28 12:54:54;;;;;;;7.40;4.70;;;;;;;;;;5120658;28;20212;-65
2022/12/28 12:57:25;;;;;;;7.97;4.97;;;;;;;;;;5119861;28;20272;-65
2022/12/28 13:00:00;;;;;;;7.10;4.90;;;;;;;;;;5116278;28;20222;-65
2022/12/28 13:02:48;;;;;;;7.60;4.40;;;;;;;;;;5107441;28;20666;-65
2022/12/28 13:05:19;;;;;;;7.23;5.07;;;;;;;;;;5120064;28;20299;-65
2022/12/28 13:07:48;;;;;;;6.53;4.50;;;;;;;;;;5120492;28;20232;-65
2022/12/28 13:10:17;;;;;;;7.67;4.83;;;;;;;;;;5120460;28;20205;-65
2022/12/28 13:12:45;;;;;;;7.57;4.90;;;;;;;;;;5120399;28;20235;-65
2022/12/28 13:15:17;;;;;;;7.93;4.20;;;;;;;;;;5120128;28;20236;-65
2022/12/28 13:18:01;;;;;;;7.83;4.20;;;;;;;;;;5119799;28;20312;-65
2022/12/28 13:20:54;;;;;;;7.50;4.53;;;;;;;;;;5118691;28;20671;-65
2022/12/28 13:23:25;;;;;;;4.83;4.03;;;;;;;;;;5119543;28;20224;-65
2022/12/28 13:25:54;;;;;;;4.73;3.73;;;;;;;;;;5119671;28;20721;-64
2022/12/28 13:28:23;;;;;;;5.10;4.10;;;;;;;;;;5119555;28;20200;-64
2022/12/28 13:31:05;;;;;;;5.93;3.73;;;;;;;;;;5119346;28;20816;-64
2022/12/28 13:33:33;;;;;;;4.43;3.97;;;;;;;;;;5119231;28;20220;-65
2022/12/28 13:36:13;;;;;;;5.50;3.40;;;;;;;;;;5119513;28;20239;-65
2022/12/28 13:38:41;;;;;;;5.93;3.60;;;;;;;;;;5119297;28;20224;-65
2022/12/28 13:41:18;;;;;;;4.83;3.73;;;;;;;;;;5119236;28;20679;-64
2022/12/28 13:44:04;;;;;;;5.47;4.13;;;;;;;;;;5119215;27;20255;-66
2022/12/28 13:46:32;;;;;;;4.23;3.27;;;;;;;;;;5118878;28;20236;-65
2022/12/28 13:49:00;;;;;;;4.30;3.87;;;;;;;;;;5119283;28;20227;-65
2022/12/28 13:51:31;;;;;;;5.00;4.20;;;;;;;;;;5119346;28;20209;-65
2022/12/28 13:54:00;;;;;;;7.83;4.40;;;;;;;;;;5119096;28;20220;-65
2022/12/28 13:56:29;;;;;;;8.73;3.80;;;;;;;;;;5118839;28;20271;-65
2022/12/28 13:58:59;;;;;;;4.23;3.83;;;;;;;;;;5119077;28;20224;-65
2022/12/28 14:01:30;;;;;;;3.63;3.33;;;;;;;;;;5114432;28;20731;-65
2022/12/28 14:04:00;;;;;;;5.23;3.50;;;;;;;;;;5105659;28;20225;-65
2022/12/28 14:06:50;;;;;;;5.67;3.00;;;;;;;;;;5118759;28;20205;-65
2022/12/28 14:09:20;;;;;;;3.73;3.30;;;;;;;;;;5118778;28;20205;-64
2022/12/28 14:11:49;;;;;;;4.47;3.13;;;;;;;;;;5118979;28;20207;-65
2022/12/28 14:14:17;;;;;;;4.40;3.73;;;;;;;;;;5118883;28;20259;-65
2022/12/28 14:16:45;;;;;;;4.90;3.60;;;;;;;;;;5118273;28;20209;-64
2022/12/28 14:19:13;;;;;;;6.30;3.83;;;;;;;;;;5118395;28;20637;-65
2022/12/28 14:21:44;;;;;;;5.73;4.10;;;;;;;;;;5118623;28;20222;-66
2022/12/28 14:24:14;;;;;;;7.13;3.90;;;;;;;;;;5118753;28;20326;-66
2022/12/28 14:26:46;;;;;;;8.17;4.47;;;;;;;;;;5118843;28;20208;-66
2022/12/28 14:29:19;;;;;;;6.10;3.43;;;;;;;;;;5118713;28;20197;-65
2022/12/28 14:31:47;;;;;;;5.37;4.10;;;;;;;;;;5118032;28;20252;-65
2022/12/28 14:34:23;;;;;;;4.37;3.40;;;;;;;;;;5118141;28;20738;-65
2022/12/28 14:36:52;;;;;;;4.80;3.60;;;;;;;;;;5118355;28;20208;-66
2022/12/28 14:39:25;;;;;;;5.20;3.70;;;;;;;;;;5118214;28;20223;-65
2022/12/28 14:41:53;;;;;;;6.80;3.60;;;;;;;;;;5118648;28;20229;-66
2022/12/28 14:44:25;;;;;;;5.57;3.90;;;;;;;;;;5118283;27;20585;-65
2022/12/28 14:46:54;;;;;;;5.10;3.70;;;;;;;;;;5118459;28;20204;-65
2022/12/28 14:49:35;;;;;;;3.97;3.17;;;;;;;;;;5118367;28;20204;-65
2022/12/28 14:52:22;;;;;;;4.80;3.63;;;;;;;;;;5118122;28;20717;-65
2022/12/28 14:54:52;;;;;;;6.27;3.90;;;;;;;;;;5118423;28;20209;-65
2022/12/28 14:57:22;;;;;;;5.17;3.77;;;;;;;;;;5117922;28;20240;-65
2022/12/28 14:59:53;;;;;;;4.60;3.83;;;;;;;;;;5114354;28;20229;-65
2022/12/28 15:02:37;;;;;;;5.03;3.33;;;;;;;;;;5105140;28;20209;-65
2022/12/28 15:05:26;;;;;;;4.63;3.37;;;;;;;;;;5117900;28;20205;-65
2022/12/28 15:07:54;;;;;;;4.70;3.70;;;;;;;;;;5118071;28;20219;-65
2022/12/28 15:10:23;;;;;;;3.87;3.50;;;;;;;;;;5117987;28;20639;-65
2022/12/28 15:12:52;;;;;;;5.57;4.47;;;;;;;;;;5117824;28;20229;-65
2022/12/28 15:15:20;;;;;;;4.90;3.77;;;;;;;;;;5118214;28;20204;-65
2022/12/28 15:17:48;;;;;;;4.83;3.43;;;;;;;;;;5117665;28;20246;-65
2022/12/28 15:20:17;;;;;;;3.90;3.47;;;;;;;;;;5118036;28;20228;-65
2022/12/28 15:22:47;;;;;;;6.70;3.93;;;;;;;;;;5118097;28;20233;-65
2022/12/28 15:25:15;;;;;;;5.33;4.07;;;;;;;;;;5117975;28;20649;-65
2022/12/28 15:27:48;;;;;;;4.07;3.67;;;;;;;;;;5117781;28;20574;-65
2022/12/28 15:30:16;;;;;;;7.70;3.80;;;;;;;;;;5117931;28;20578;-65
2022/12/28 15:32:50;;;;;;;6.23;3.80;;;;;;;;;;5117437;28;20224;-65